Birdwell, United Kingdom
Current Conditions -  °F | °C
As of 1:50 AM on Sunday 26 Oct 2014 (Local Time) from EGCN Reporting Station
Broken Clouds Broken Clouds  
Wind Chill: 13°   Ceiling: 4600
Heat Index: 13°   Visibility: 6mi
Dew Point:   Wind: 20mph
Humidity: 77%   Direction: 200°SSW
Pressure: 30"   Gusts: NA
Location:  53.51°N, 1.48°W
Report Text: EGCN 260050Z 20017KT 9999 BKN046 13/09 Q1016
Loading
Personal Weather Stations






























Interactive Weather Map
Tropical Storm Tracking
New forecast layout! Learn more

10-Day Weather Forecast

Advertisements
Track Severe Weather on mobile